sensor_id;sensor_type;location;lat;lon;timestamp;pressure;altitude;pressure_sealevel;temperature;humidity
55347;BME280;41218;55.700;38.270;2023-06-14T00:01:14;100250.75;;;11.14;51.71
55347;BME280;41218;55.700;38.270;2023-06-14T00:06:16;100256.94;;;11.08;51.80
55347;BME280;41218;55.700;38.270;2023-06-14T00:11:17;100244.22;;;10.87;51.91
55347;BME280;41218;55.700;38.270;2023-06-14T00:16:18;100254.47;;;10.87;52.00
55347;BME280;41218;55.700;38.270;2023-06-14T00:21:20;100257.16;;;10.83;52.17
55347;BME280;41218;55.700;38.270;2023-06-14T00:26:21;100239.44;;;10.68;52.23
55347;BME280;41218;55.700;38.270;2023-06-14T00:31:23;100244.94;;;10.68;52.45
55347;BME280;41218;55.700;38.270;2023-06-14T00:36:23;100227.13;;;10.50;52.24
55347;BME280;41218;55.700;38.270;2023-06-14T00:41:24;100238.28;;;10.53;52.52
55347;BME280;41218;55.700;38.270;2023-06-14T00:46:24;100234.53;;;10.46;52.45
55347;BME280;41218;55.700;38.270;2023-06-14T00:51:26;100245.50;;;10.42;52.67
55347;BME280;41218;55.700;38.270;2023-06-14T00:56:27;100231.69;;;10.26;52.72
55347;BME280;41218;55.700;38.270;2023-06-14T01:01:30;100236.75;;;10.24;52.68
55347;BME280;41218;55.700;38.270;2023-06-14T01:06:49;100240.66;;;10.23;53.56
55347;BME280;41218;55.700;38.270;2023-06-14T01:12:04;100237.53;;;10.09;53.40
55347;BME280;41218;55.700;38.270;2023-06-14T01:17:08;100242.25;;;10.08;53.17
55347;BME280;41218;55.700;38.270;2023-06-14T01:22:17;100243.69;;;10.02;53.31
55347;BME280;41218;55.700;38.270;2023-06-14T01:27:18;100246.69;;;9.97;53.46
55347;BME280;41218;55.700;38.270;2023-06-14T01:32:19;100241.25;;;10.00;53.19
55347;BME280;41218;55.700;38.270;2023-06-14T01:37:22;100256.38;;;9.91;53.54
55347;BME280;41218;55.700;38.270;2023-06-14T01:42:24;100236.09;;;9.71;53.96
55347;BME280;41218;55.700;38.270;2023-06-14T01:47:25;100250.28;;;9.69;54.10
55347;BME280;41218;55.700;38.270;2023-06-14T01:52:26;100238.47;;;9.56;54.49
55347;BME280;41218;55.700;38.270;2023-06-14T01:57:27;100244.00;;;9.56;54.74
55347;BME280;41218;55.700;38.270;2023-06-14T02:02:27;100247.25;;;9.46;54.93
55347;BME280;41218;55.700;38.270;2023-06-14T02:07:30;100258.50;;;9.53;54.98
55347;BME280;41218;55.700;38.270;2023-06-14T02:12:30;100253.34;;;9.52;55.32
55347;BME280;41218;55.700;38.270;2023-06-14T02:17:31;100263.91;;;9.50;55.74
55347;BME280;41218;55.700;38.270;2023-06-14T02:22:31;100245.09;;;9.39;56.32
55347;BME280;41218;55.700;38.270;2023-06-14T02:27:32;100258.75;;;9.48;56.56
55347;BME280;41218;55.700;38.270;2023-06-14T02:32:32;100254.41;;;9.47;56.84
55347;BME280;41218;55.700;38.270;2023-06-14T02:37:35;100255.06;;;9.44;57.09
55347;BME280;41218;55.700;38.270;2023-06-14T02:42:36;100257.34;;;9.54;57.51
55347;BME280;41218;55.700;38.270;2023-06-14T02:47:36;100245.41;;;9.50;57.75
55347;BME280;41218;55.700;38.270;2023-06-14T02:52:37;100258.25;;;9.58;58.04
55347;BME280;41218;55.700;38.270;2023-06-14T02:57:38;100265.69;;;9.70;58.34
55347;BME280;41218;55.700;38.270;2023-06-14T03:02:39;100269.34;;;9.74;59.15
55347;BME280;41218;55.700;38.270;2023-06-14T03:07:39;100263.66;;;9.83;59.73
55347;BME280;41218;55.700;38.270;2023-06-14T03:12:41;100259.69;;;9.96;58.98
55347;BME280;41218;55.700;38.270;2023-06-14T03:17:41;100251.88;;;9.98;59.76
55347;BME280;41218;55.700;38.270;2023-06-14T03:22:45;100264.47;;;10.12;60.67
55347;BME280;41218;55.700;38.270;2023-06-14T03:27:46;100264.81;;;10.26;61.08
55347;BME280;41218;55.700;38.270;2023-06-14T03:32:47;100269.66;;;10.45;61.40
55347;BME280;41218;55.700;38.270;2023-06-14T03:37:47;100258.78;;;10.68;61.85
55347;BME280;41218;55.700;38.270;2023-06-14T03:42:48;100256.44;;;10.86;61.66
55347;BME280;41218;55.700;38.270;2023-06-14T03:47:50;100228.59;;;10.95;62.46
55347;BME280;41218;55.700;38.270;2023-06-14T03:52:50;100258.22;;;11.30;62.64
55347;BME280;41218;55.700;38.270;2023-06-14T03:57:51;100260.34;;;11.56;62.45
55347;BME280;41218;55.700;38.270;2023-06-14T04:02:52;100258.03;;;11.97;62.00
55347;BME280;41218;55.700;38.270;2023-06-14T04:07:54;100261.56;;;12.40;61.67
55347;BME280;41218;55.700;38.270;2023-06-14T04:12:56;100260.50;;;12.71;61.15
55347;BME280;41218;55.700;38.270;2023-06-14T04:17:56;100251.47;;;13.05;60.97
55347;BME280;41218;55.700;38.270;2023-06-14T04:22:57;100261.06;;;13.37;60.41
55347;BME280;41218;55.700;38.270;2023-06-14T04:28:15;100258.72;;;13.70;60.05
55347;BME280;41218;55.700;38.270;2023-06-14T04:33:16;100263.00;;;13.97;59.40
55347;BME280;41218;55.700;38.270;2023-06-14T04:38:19;100251.72;;;14.20;59.17
55347;BME280;41218;55.700;38.270;2023-06-14T04:43:24;100253.56;;;14.50;58.46
55347;BME280;41218;55.700;38.270;2023-06-14T04:48:27;100251.00;;;14.75;58.23
55347;BME280;41218;55.700;38.270;2023-06-14T04:53:28;100251.59;;;14.99;57.73
55347;BME280;41218;55.700;38.270;2023-06-14T04:58:29;100259.28;;;15.23;57.12
55347;BME280;41218;55.700;38.270;2023-06-14T05:03:30;100264.56;;;15.47;56.82
55347;BME280;41218;55.700;38.270;2023-06-14T05:08:31;100258.72;;;15.70;56.16
55347;BME280;41218;55.700;38.270;2023-06-14T05:13:32;100244.84;;;15.84;55.66
55347;BME280;41218;55.700;38.270;2023-06-14T05:18:33;100248.09;;;16.04;55.32
55347;BME280;41218;55.700;38.270;2023-06-14T05:23:37;100262.47;;;16.28;54.85
55347;BME280;41218;55.700;38.270;2023-06-14T05:28:38;100262.09;;;16.51;54.37
55347;BME280;41218;55.700;38.270;2023-06-14T05:33:40;100246.53;;;16.68;53.54
55347;BME280;41218;55.700;38.270;2023-06-14T05:38:40;100246.94;;;16.95;52.83
55347;BME280;41218;55.700;38.270;2023-06-14T05:43:42;100260.47;;;17.18;52.24
55347;BME280;41218;55.700;38.270;2023-06-14T05:48:43;100264.41;;;17.35;51.78
55347;BME280;41218;55.700;38.270;2023-06-14T05:53:43;100269.50;;;17.61;51.50
55347;BME280;41218;55.700;38.270;2023-06-14T05:58:47;100266.63;;;17.76;49.96
55347;BME280;41218;55.700;38.270;2023-06-14T06:03:48;100269.78;;;17.92;49.13
55347;BME280;41218;55.700;38.270;2023-06-14T06:08:48;100271.66;;;18.17;49.45
55347;BME280;41218;55.700;38.270;2023-06-14T06:13:49;100267.97;;;18.31;48.32
55347;BME280;41218;55.700;38.270;2023-06-14T06:18:51;100265.47;;;18.44;47.51
55347;BME280;41218;55.700;38.270;2023-06-14T06:23:52;100268.94;;;18.62;46.80
55347;BME280;41218;55.700;38.270;2023-06-14T06:28:52;100266.78;;;18.84;46.69
55347;BME280;41218;55.700;38.270;2023-06-14T06:33:54;100267.91;;;18.94;45.80
55347;BME280;41218;55.700;38.270;2023-06-14T06:38:55;100262.56;;;19.07;45.39
55347;BME280;41218;55.700;38.270;2023-06-14T06:43:55;100270.31;;;19.30;45.51
55347;BME280;41218;55.700;38.270;2023-06-14T06:48:57;100258.25;;;19.36;44.40
55347;BME280;41218;55.700;38.270;2023-06-14T06:53:57;100256.41;;;19.57;44.68
55347;BME280;41218;55.700;38.270;2023-06-14T06:59:01;100251.47;;;19.65;43.54
55347;BME280;41218;55.700;38.270;2023-06-14T07:04:02;100248.59;;;19.75;43.15
55347;BME280;41218;55.700;38.270;2023-06-14T07:09:06;100248.47;;;19.83;41.59
55347;BME280;41218;55.700;38.270;2023-06-14T07:14:09;100246.34;;;19.94;41.27
55347;BME280;41218;55.700;38.270;2023-06-14T07:19:10;100240.22;;;19.99;40.99
55347;BME280;41218;55.700;38.270;2023-06-14T07:24:10;100242.03;;;20.13;40.67
55347;BME280;41218;55.700;38.270;2023-06-14T07:29:11;100241.91;;;20.24;40.75
55347;BME280;41218;55.700;38.270;2023-06-14T07:34:12;100235.63;;;20.39;40.33
55347;BME280;41218;55.700;38.270;2023-06-14T07:39:12;100242.69;;;20.48;39.82
55347;BME280;41218;55.700;38.270;2023-06-14T07:44:13;100234.59;;;20.53;38.81
55347;BME280;41218;55.700;38.270;2023-06-14T07:49:13;100236.81;;;20.66;39.11
55347;BME280;41218;55.700;38.270;2023-06-14T07:54:14;100247.38;;;20.81;39.00
55347;BME280;41218;55.700;38.270;2023-06-14T07:59:14;100228.75;;;20.91;38.18
55347;BME280;41218;55.700;38.270;2023-06-14T08:04:15;100240.25;;;21.00;38.37
55347;BME280;41218;55.700;38.270;2023-06-14T08:09:17;100235.34;;;21.05;37.38
55347;BME280;41218;55.700;38.270;2023-06-14T08:14:19;100228.84;;;21.08;37.35
55347;BME280;41218;55.700;38.270;2023-06-14T08:19:20;100239.53;;;21.16;37.43
55347;BME280;41218;55.700;38.270;2023-06-14T08:24:21;100231.38;;;21.22;37.43
55347;BME280;41218;55.700;38.270;2023-06-14T08:29:25;100225.19;;;21.31;37.23
55347;BME280;41218;55.700;38.270;2023-06-14T08:34:29;100225.41;;;21.40;36.45
55347;BME280;41218;55.700;38.270;2023-06-14T08:39:30;100239.38;;;21.47;36.88
55347;BME280;41218;55.700;38.270;2023-06-14T08:44:31;100221.13;;;21.55;36.61
55347;BME280;41218;55.700;38.270;2023-06-14T08:49:32;100222.09;;;21.65;36.19
55347;BME280;41218;55.700;38.270;2023-06-14T08:54:34;100227.16;;;21.74;35.97
55347;BME280;41218;55.700;38.270;2023-06-14T08:59:36;100208.16;;;21.78;35.88
55347;BME280;41218;55.700;38.270;2023-06-14T09:04:39;100209.75;;;21.79;36.21
55347;BME280;41218;55.700;38.270;2023-06-14T09:09:40;100198.97;;;21.94;35.99
55347;BME280;41218;55.700;38.270;2023-06-14T09:14:42;100204.00;;;22.03;36.13
55347;BME280;41218;55.700;38.270;2023-06-14T09:19:42;100206.19;;;22.11;35.53
55347;BME280;41218;55.700;38.270;2023-06-14T09:24:43;100189.66;;;22.13;35.49
55347;BME280;41218;55.700;38.270;2023-06-14T09:29:44;100191.97;;;22.18;35.01
55347;BME280;41218;55.700;38.270;2023-06-14T09:34:45;100187.13;;;22.19;35.29
55347;BME280;41218;55.700;38.270;2023-06-14T09:39:50;100189.41;;;22.24;34.53
55347;BME280;41218;55.700;38.270;2023-06-14T09:44:51;100170.53;;;22.25;34.63
55347;BME280;41218;55.700;38.270;2023-06-14T09:49:52;100171.66;;;22.27;34.84
55347;BME280;41218;55.700;38.270;2023-06-14T09:54:55;100155.91;;;22.30;34.56
55347;BME280;41218;55.700;38.270;2023-06-14T10:00:01;100153.06;;;22.46;34.51
55347;BME280;41218;55.700;38.270;2023-06-14T10:05:09;100150.00;;;22.57;34.54
55347;BME280;41218;55.700;38.270;2023-06-14T10:10:14;100156.53;;;22.67;33.80
55347;BME280;41218;55.700;38.270;2023-06-14T10:15:48;100155.25;;;22.71;33.61
55347;BME280;41218;55.700;38.270;2023-06-14T10:20:47;100127.50;;;22.70;33.14
55347;BME280;41218;55.700;38.270;2023-06-14T10:25:56;100157.75;;;22.82;33.19
55347;BME280;41218;55.700;38.270;2023-06-14T10:31:11;100147.19;;;22.86;33.37
55347;BME280;41218;55.700;38.270;2023-06-14T10:36:29;100145.84;;;22.91;32.97
55347;BME280;41218;55.700;38.270;2023-06-14T10:41:39;100138.06;;;22.95;32.70
55347;BME280;41218;55.700;38.270;2023-06-14T10:46:41;100135.59;;;22.97;33.05
55347;BME280;41218;55.700;38.270;2023-06-14T10:51:51;100122.41;;;22.94;32.62
55347;BME280;41218;55.700;38.270;2023-06-14T10:56:52;100135.09;;;23.02;33.22
55347;BME280;41218;55.700;38.270;2023-06-14T11:03:13;100120.34;;;23.11;32.86
55347;BME280;41218;55.700;38.270;2023-06-14T11:13:26;100124.09;;;23.20;33.02
55347;BME280;41218;55.700;38.270;2023-06-14T11:18:28;100110.56;;;23.28;32.79
55347;BME280;41218;55.700;38.270;2023-06-14T11:23:29;100104.00;;;23.31;32.90
55347;BME280;41218;55.700;38.270;2023-06-14T11:28:39;100112.50;;;23.44;33.14
55347;BME280;41218;55.700;38.270;2023-06-14T11:33:40;100107.31;;;23.55;33.16
55347;BME280;41218;55.700;38.270;2023-06-14T11:38:41;100097.03;;;23.62;32.92
55347;BME280;41218;55.700;38.270;2023-06-14T11:43:42;100092.97;;;23.75;33.04
55347;BME280;41218;55.700;38.270;2023-06-14T11:48:43;100083.66;;;23.78;32.92
55347;BME280;41218;55.700;38.270;2023-06-14T11:53:43;100080.25;;;23.84;32.63
55347;BME280;41218;55.700;38.270;2023-06-14T11:58:44;100087.66;;;23.90;32.64
55347;BME280;41218;55.700;38.270;2023-06-14T12:03:49;100086.00;;;23.93;32.02
55347;BME280;41218;55.700;38.270;2023-06-14T12:08:50;100085.75;;;24.00;32.55
55347;BME280;41218;55.700;38.270;2023-06-14T12:13:52;100085.63;;;24.04;32.32
55347;BME280;41218;55.700;38.270;2023-06-14T12:18:53;100070.84;;;23.99;32.25
55347;BME280;41218;55.700;38.270;2023-06-14T12:23:53;100063.50;;;24.02;31.97
55347;BME280;41218;55.700;38.270;2023-06-14T12:28:54;100048.25;;;23.99;31.52
55347;BME280;41218;55.700;38.270;2023-06-14T12:33:55;100053.88;;;24.12;31.95
55347;BME280;41218;55.700;38.270;2023-06-14T12:38:55;100053.75;;;24.16;31.64
55347;BME280;41218;55.700;38.270;2023-06-14T12:43:58;100052.53;;;24.17;31.34
55347;BME280;41218;55.700;38.270;2023-06-14T12:49:00;100052.53;;;24.17;31.51
55347;BME280;41218;55.700;38.270;2023-06-14T12:54:00;100042.66;;;24.22;31.42
55347;BME280;41218;55.700;38.270;2023-06-14T12:59:01;100048.53;;;24.27;31.58
55347;BME280;41218;55.700;38.270;2023-06-14T13:04:02;100047.25;;;24.28;31.79
55347;BME280;41218;55.700;38.270;2023-06-14T13:09:03;100031.31;;;24.34;31.76
55347;BME280;41218;55.700;38.270;2023-06-14T13:14:04;100020.00;;;24.34;31.51
55347;BME280;41218;55.700;38.270;2023-06-14T13:19:04;100027.09;;;24.39;31.62
55347;BME280;41218;55.700;38.270;2023-06-14T13:24:06;100028.75;;;24.49;32.25
55347;BME280;41218;55.700;38.270;2023-06-14T13:29:08;100008.47;;;24.42;32.27
55347;BME280;41218;55.700;38.270;2023-06-14T13:34:08;100019.72;;;24.54;31.78
55347;BME280;41218;55.700;38.270;2023-06-14T13:39:09;100027.75;;;24.56;32.04
55347;BME280;41218;55.700;38.270;2023-06-14T13:44:09;100028.06;;;24.58;31.93
55347;BME280;41218;55.700;38.270;2023-06-14T13:49:14;100012.50;;;24.53;31.82
55347;BME280;41218;55.700;38.270;2023-06-14T13:54:15;100013.94;;;24.58;31.74
55347;BME280;41218;55.700;38.270;2023-06-14T13:59:16;100012.56;;;24.63;31.72
55347;BME280;41218;55.700;38.270;2023-06-14T14:04:21;100021.03;;;24.63;31.84
55347;BME280;41218;55.700;38.270;2023-06-14T14:09:23;100013.94;;;24.58;31.59
55347;BME280;41218;55.700;38.270;2023-06-14T14:14:27;100004.22;;;24.59;31.21
55347;BME280;41218;55.700;38.270;2023-06-14T14:19:28;100002.31;;;24.56;31.39
55347;BME280;41218;55.700;38.270;2023-06-14T14:24:28;100011.56;;;24.56;31.54
55347;BME280;41218;55.700;38.270;2023-06-14T14:29:31;100007.31;;;24.52;31.23
55347;BME280;41218;55.700;38.270;2023-06-14T14:34:32;100013.75;;;24.52;31.41
55347;BME280;41218;55.700;38.270;2023-06-14T14:39:32;100011.00;;;24.49;31.24
55347;BME280;41218;55.700;38.270;2023-06-14T14:44:33;100010.69;;;24.47;31.05
55347;BME280;41218;55.700;38.270;2023-06-14T14:49:34;100011.47;;;24.47;31.23
55347;BME280;41218;55.700;38.270;2023-06-14T14:54:37;100010.81;;;24.43;31.33
55347;BME280;41218;55.700;38.270;2023-06-14T14:59:37;99998.78;;;24.30;31.41
55347;BME280;41218;55.700;38.270;2023-06-14T15:04:39;100012.25;;;24.26;31.29
55347;BME280;41218;55.700;38.270;2023-06-14T15:09:40;100001.81;;;24.13;31.63
55347;BME280;41218;55.700;38.270;2023-06-14T15:14:42;100014.81;;;24.11;31.57
55347;BME280;41218;55.700;38.270;2023-06-14T15:19:55;100005.13;;;23.99;31.49
55347;BME280;41218;55.700;38.270;2023-06-14T15:24:55;100016.09;;;23.97;31.54
55347;BME280;41218;55.700;38.270;2023-06-14T15:29:58;100016.00;;;23.88;31.50
55347;BME280;41218;55.700;38.270;2023-06-14T15:34:59;100017.81;;;23.82;31.81
55347;BME280;41218;55.700;38.270;2023-06-14T15:40:00;100014.41;;;23.74;32.24
55347;BME280;41218;55.700;38.270;2023-06-14T15:45:00;100017.03;;;23.68;32.18
55347;BME280;41218;55.700;38.270;2023-06-14T15:50:01;100015.81;;;23.56;32.27
55347;BME280;41218;55.700;38.270;2023-06-14T15:55:05;100023.25;;;23.50;32.36
55347;BME280;41218;55.700;38.270;2023-06-14T16:00:06;100028.78;;;23.41;32.40
55347;BME280;41218;55.700;38.270;2023-06-14T16:05:07;100025.38;;;23.33;32.63
55347;BME280;41218;55.700;38.270;2023-06-14T16:10:08;100020.88;;;23.23;32.66
55347;BME280;41218;55.700;38.270;2023-06-14T16:15:10;100027.44;;;23.20;32.67
55347;BME280;41218;55.700;38.270;2023-06-14T16:20:11;100029.22;;;23.14;32.96
55347;BME280;41218;55.700;38.270;2023-06-14T16:25:11;100038.00;;;23.03;32.96
55347;BME280;41218;55.700;38.270;2023-06-14T16:30:12;100044.28;;;22.94;32.98
55347;BME280;41218;55.700;38.270;2023-06-14T16:35:13;100038.63;;;22.82;33.25
55347;BME280;41218;55.700;38.270;2023-06-14T16:40:13;100038.28;;;22.79;33.41
55347;BME280;41218;55.700;38.270;2023-06-14T16:45:14;100046.91;;;22.72;33.73
55347;BME280;41218;55.700;38.270;2023-06-14T16:50:16;100045.63;;;22.60;34.34
55347;BME280;41218;55.700;38.270;2023-06-14T16:55:17;100052.81;;;22.49;35.29
55347;BME280;41218;55.700;38.270;2023-06-14T17:00:19;100060.84;;;22.34;36.10
55347;BME280;41218;55.700;38.270;2023-06-14T17:05:21;100052.41;;;22.17;36.60
55347;BME280;41218;55.700;38.270;2023-06-14T17:10:21;100053.91;;;22.06;37.10
55347;BME280;41218;55.700;38.270;2023-06-14T17:15:22;100035.31;;;21.79;37.54
55347;BME280;41218;55.700;38.270;2023-06-14T17:20:23;100055.53;;;21.74;38.07
55347;BME280;41218;55.700;38.270;2023-06-14T17:25:26;100051.91;;;21.57;38.81
55347;BME280;41218;55.700;38.270;2023-06-14T17:30:29;100052.66;;;21.41;38.77
55347;BME280;41218;55.700;38.270;2023-06-14T17:35:30;100054.94;;;21.30;39.22
55347;BME280;41218;55.700;38.270;2023-06-14T17:40:31;100070.09;;;21.16;39.69
55347;BME280;41218;55.700;38.270;2023-06-14T17:45:32;100052.53;;;20.92;40.03
55347;BME280;41218;55.700;38.270;2023-06-14T17:50:33;100074.66;;;20.90;40.04
55347;BME280;41218;55.700;38.270;2023-06-14T17:55:36;100083.44;;;20.72;40.55
55347;BME280;41218;55.700;38.270;2023-06-14T18:00:36;100076.13;;;20.54;40.82
55347;BME280;41218;55.700;38.270;2023-06-14T18:05:37;100085.97;;;20.42;41.02
55347;BME280;41218;55.700;38.270;2023-06-14T18:10:40;100095.06;;;20.27;41.28
55347;BME280;41218;55.700;38.270;2023-06-14T18:15:41;100085.44;;;20.04;41.29
55347;BME280;41218;55.700;38.270;2023-06-14T18:20:43;100089.59;;;19.96;41.72
55347;BME280;41218;55.700;38.270;2023-06-14T18:25:46;100084.69;;;19.76;42.06
55347;BME280;41218;55.700;38.270;2023-06-14T18:30:47;100079.31;;;19.58;42.12
55347;BME280;41218;55.700;38.270;2023-06-14T18:35:48;100072.00;;;19.41;42.23
55347;BME280;41218;55.700;38.270;2023-06-14T18:40:48;100091.75;;;19.30;42.86
55347;BME280;41218;55.700;38.270;2023-06-14T18:45:54;100098.38;;;19.13;43.20
55347;BME280;41218;55.700;38.270;2023-06-14T18:50:57;100098.16;;;19.00;42.98
55347;BME280;41218;55.700;38.270;2023-06-14T18:55:59;100094.34;;;18.83;43.16
55347;BME280;41218;55.700;38.270;2023-06-14T19:00:59;100084.16;;;18.62;43.26
55347;BME280;41218;55.700;38.270;2023-06-14T19:06:00;100083.47;;;18.51;43.46
55347;BME280;41218;55.700;38.270;2023-06-14T19:11:00;100082.84;;;18.36;43.74
55347;BME280;41218;55.700;38.270;2023-06-14T19:16:01;100075.78;;;18.20;43.98
55347;BME280;41218;55.700;38.270;2023-06-14T19:21:01;100084.94;;;18.25;43.42
55347;BME280;41218;55.700;38.270;2023-06-14T19:26:03;100084.75;;;18.01;43.96
55347;BME280;41218;55.700;38.270;2023-06-14T19:31:03;100078.94;;;17.74;44.28
55347;BME280;41218;55.700;38.270;2023-06-14T19:36:04;100088.09;;;17.78;44.17
55347;BME280;41218;55.700;38.270;2023-06-14T19:41:05;100093.06;;;17.52;44.73
55347;BME280;41218;55.700;38.270;2023-06-14T19:46:05;100087.91;;;17.47;44.50
55347;BME280;41218;55.700;38.270;2023-06-14T19:51:06;100086.47;;;17.21;44.88
55347;BME280;41218;55.700;38.270;2023-06-14T19:56:06;100088.06;;;17.22;44.57
55347;BME280;41218;55.700;38.270;2023-06-14T20:01:07;100079.78;;;16.97;45.27
55347;BME280;41218;55.700;38.270;2023-06-14T20:06:08;100100.53;;;16.99;44.98
55347;BME280;41218;55.700;38.270;2023-06-14T20:11:11;100104.97;;;16.72;45.83
55347;BME280;41218;55.700;38.270;2023-06-14T20:16:13;100098.22;;;16.58;45.75
55347;BME280;41218;55.700;38.270;2023-06-14T20:21:13;100100.63;;;16.63;45.68
55347;BME280;41218;55.700;38.270;2023-06-14T20:26:14;100099.88;;;16.41;46.05
55347;BME280;41218;55.700;38.270;2023-06-14T20:31:15;100098.31;;;16.26;46.56
55347;BME280;41218;55.700;38.270;2023-06-14T20:36:18;100106.66;;;16.15;46.89
55347;BME280;41218;55.700;38.270;2023-06-14T20:41:19;100104.28;;;16.03;46.98
55347;BME280;41218;55.700;38.270;2023-06-14T20:46:19;100097.13;;;16.02;46.68
55347;BME280;41218;55.700;38.270;2023-06-14T20:51:20;100074.00;;;15.66;47.32
55347;BME280;41218;55.700;38.270;2023-06-14T20:56:21;100093.88;;;15.60;47.66
55347;BME280;41218;55.700;38.270;2023-06-14T21:01:22;100099.84;;;15.66;47.20
55347;BME280;41218;55.700;38.270;2023-06-14T21:06:32;100089.84;;;15.40;47.77
55347;BME280;41218;55.700;38.270;2023-06-14T21:11:37;100091.41;;;15.30;48.71
55347;BME280;41218;55.700;38.270;2023-06-14T21:16:37;100086.22;;;15.18;48.31
55347;BME280;41218;55.700;38.270;2023-06-14T21:21:38;100100.53;;;15.16;48.53
55347;BME280;41218;55.700;38.270;2023-06-14T21:26:38;100098.50;;;15.06;48.85
55347;BME280;41218;55.700;38.270;2023-06-14T21:31:41;100087.31;;;14.88;49.16
55347;BME280;41218;55.700;38.270;2023-06-14T21:36:42;100086.84;;;14.75;49.43
55347;BME280;41218;55.700;38.270;2023-06-14T21:41:42;100086.41;;;14.66;49.52
55347;BME280;41218;55.700;38.270;2023-06-14T21:46:44;100091.97;;;14.62;49.86
55347;BME280;41218;55.700;38.270;2023-06-14T21:51:44;100086.31;;;14.55;49.94
55347;BME280;41218;55.700;38.270;2023-06-14T21:56:45;100090.63;;;14.49;49.83
55347;BME280;41218;55.700;38.270;2023-06-14T22:01:45;100084.63;;;14.40;50.27
55347;BME280;41218;55.700;38.270;2023-06-14T22:06:47;100077.41;;;14.28;50.55
55347;BME280;41218;55.700;38.270;2023-06-14T22:11:48;100076.53;;;14.17;50.68
55347;BME280;41218;55.700;38.270;2023-06-14T22:16:49;100076.50;;;14.10;50.82
55347;BME280;41218;55.700;38.270;2023-06-14T22:21:51;100072.78;;;13.95;51.13
55347;BME280;41218;55.700;38.270;2023-06-14T22:26:52;100091.41;;;13.91;51.55
55347;BME280;41218;55.700;38.270;2023-06-14T22:31:56;100091.38;;;13.83;51.52
55347;BME280;41218;55.700;38.270;2023-06-14T22:36:58;100079.34;;;13.69;51.86
55347;BME280;41218;55.700;38.270;2023-06-14T22:42:06;100079.22;;;13.58;51.93
55347;BME280;41218;55.700;38.270;2023-06-14T22:47:07;100084.41;;;13.59;51.84
55347;BME280;41218;55.700;38.270;2023-06-14T22:52:10;100084.72;;;13.54;52.00
55347;BME280;41218;55.700;38.270;2023-06-14T22:57:11;100086.66;;;13.47;52.15
55347;BME280;41218;55.700;38.270;2023-06-14T23:02:18;100083.38;;;13.37;52.31
55347;BME280;41218;55.700;38.270;2023-06-14T23:07:18;100081.75;;;13.33;52.29
55347;BME280;41218;55.700;38.270;2023-06-14T23:12:26;100081.63;;;13.26;52.26
55347;BME280;41218;55.700;38.270;2023-06-14T23:17:29;100079.59;;;13.19;52.26
55347;BME280;41218;55.700;38.270;2023-06-14T23:22:30;100070.31;;;13.08;52.53
55347;BME280;41218;55.700;38.270;2023-06-14T23:27:35;100071.94;;;13.09;52.44
55347;BME280;41218;55.700;38.270;2023-06-14T23:32:37;100074.25;;;13.03;52.52
55347;BME280;41218;55.700;38.270;2023-06-14T23:37:40;100067.78;;;12.92;52.48
55347;BME280;41218;55.700;38.270;2023-06-14T23:42:42;100064.06;;;12.80;52.57
55347;BME280;41218;55.700;38.270;2023-06-14T23:47:43;100071.25;;;12.81;52.69
55347;BME280;41218;55.700;38.270;2023-06-14T23:52:43;100081.06;;;12.75;52.86
55347;BME280;41218;55.700;38.270;2023-06-14T23:57:46;100075.72;;;12.63;53.13
